createdAt,value
2022-07-27T00:04:32.401Z,100.00
2022-07-27T00:09:37.725Z,100.00
2022-07-27T00:20:36.280Z,100.00
2022-07-27T00:25:41.370Z,100.00
2022-07-27T00:30:46.450Z,100.00
2022-07-27T00:35:54.062Z,100.00
2022-07-27T00:40:59.425Z,100.00
2022-07-27T00:46:04.530Z,100.00
2022-07-27T00:51:14.067Z,100.00
2022-07-27T00:56:19.424Z,100.00
2022-07-27T01:01:24.381Z,100.00
2022-07-27T01:06:32.098Z,100.00
2022-07-27T01:11:37.011Z,100.00
2022-07-27T01:16:42.255Z,100.00
2022-07-27T01:21:49.859Z,100.00
2022-07-27T01:26:54.861Z,100.00
2022-07-27T01:32:00.443Z,100.00
2022-07-27T01:37:08.815Z,100.00
2022-07-27T01:42:16.567Z,100.00
2022-07-27T01:47:21.675Z,100.00
2022-07-27T01:52:29.082Z,100.00
2022-07-27T01:57:34.050Z,100.00
2022-07-27T02:02:39.050Z,100.00
2022-07-27T02:07:46.582Z,100.00
2022-07-27T02:12:51.410Z,100.00
2022-07-27T02:17:57.187Z,100.00
2022-07-27T02:23:05.125Z,100.00
2022-07-27T02:28:10.159Z,100.00
2022-07-27T02:33:15.304Z,100.00
2022-07-27T02:38:24.002Z,100.00
2022-07-27T02:43:28.846Z,100.00
2022-07-27T02:48:34.869Z,100.00
2022-07-27T02:53:42.430Z,100.00
2022-07-27T02:58:47.373Z,100.00
2022-07-27T03:03:52.350Z,100.00
2022-07-27T03:08:59.936Z,100.00
2022-07-27T03:14:05.026Z,100.00
2022-07-27T03:19:10.292Z,100.00
2022-07-27T03:24:17.998Z,100.00
2022-07-27T03:29:22.993Z,100.00
2022-07-27T03:34:28.088Z,100.00
2022-07-27T03:39:35.712Z,100.00
2022-07-27T03:44:40.623Z,100.00
2022-07-27T03:49:45.659Z,100.00
2022-07-27T03:54:53.102Z,100.00
2022-07-27T03:59:58.081Z,100.00
2022-07-27T04:05:03.244Z,100.00
2022-07-27T04:10:12.487Z,100.00
2022-07-27T04:15:19.546Z,100.00
2022-07-27T04:20:24.405Z,100.00
2022-07-27T04:25:32.855Z,100.00
2022-07-27T04:30:37.912Z,100.00
2022-07-27T04:35:42.913Z,100.00
2022-07-27T04:40:52.765Z,100.00
2022-07-27T04:46:01.345Z,100.00
2022-07-27T04:51:06.385Z,100.00
2022-07-27T04:56:14.994Z,100.00
2022-07-27T05:01:23.810Z,100.00
2022-07-27T05:06:28.746Z,100.00
2022-07-27T05:11:36.264Z,100.00
2022-07-27T05:16:43.080Z,100.00
2022-07-27T05:21:48.002Z,100.00
2022-07-27T05:26:55.938Z,100.00
2022-07-27T05:32:00.945Z,100.00
2022-07-27T05:37:05.999Z,100.00
2022-07-27T05:42:14.355Z,100.00
2022-07-27T05:47:19.394Z,100.00
2022-07-27T05:52:24.261Z,100.00
2022-07-27T05:57:31.769Z,100.00
2022-07-27T06:02:37.334Z,100.00
2022-07-27T06:07:54.676Z,100.00
2022-07-27T06:13:02.913Z,100.00
2022-07-27T06:18:13.899Z,100.00
2022-07-27T06:23:18.846Z,100.00
2022-07-27T06:28:26.906Z,100.00
2022-07-27T06:33:31.938Z,100.00
2022-07-27T06:38:37.853Z,100.00
2022-07-27T06:43:45.429Z,100.00
2022-07-27T06:48:50.344Z,100.00
2022-07-27T06:53:55.952Z,100.00
2022-07-27T06:59:03.567Z,100.00
2022-07-27T07:04:08.778Z,100.00
2022-07-27T07:09:14.470Z,100.00
2022-07-27T07:14:22.791Z,100.00
2022-07-27T07:19:27.843Z,100.00
2022-07-27T07:24:34.039Z,100.00
2022-07-27T07:29:41.556Z,100.00
2022-07-27T07:34:46.508Z,100.00
2022-07-27T07:39:51.388Z,100.00
2022-07-27T07:44:59.206Z,100.00
2022-07-27T07:50:04.128Z,100.00
2022-07-27T07:55:10.695Z,100.00
2022-07-27T08:00:20.167Z,100.00
2022-07-27T08:05:25.954Z,100.00
2022-07-27T08:10:30.987Z,100.00
2022-07-27T08:15:38.959Z,100.00
2022-07-27T08:20:44.260Z,100.00
2022-07-27T08:25:54.621Z,100.00
2022-07-27T08:31:02.715Z,100.00
2022-07-27T08:36:20.541Z,100.00
2022-07-27T08:41:30.093Z,100.00
2022-07-27T08:46:40.887Z,100.00
2022-07-27T08:51:47.681Z,100.00
2022-07-27T08:56:52.935Z,100.00
2022-07-27T09:02:03.164Z,100.00
2022-07-27T09:07:08.616Z,100.00
2022-07-27T09:12:14.073Z,100.00
2022-07-27T09:17:48.670Z,100.00
2022-07-27T09:22:56.451Z,100.00
2022-07-27T09:28:02.339Z,100.00
2022-07-27T09:33:10.758Z,100.00
2022-07-27T09:38:22.593Z,100.00
2022-07-27T09:44:27.644Z,100.00
2022-07-27T09:48:56.472Z,100.00
2022-07-27T09:54:09.165Z,91.42
2022-07-27T09:59:21.911Z,94.23
2022-07-27T10:04:29.671Z,93.24
2022-07-27T10:09:35.133Z,90.76
2022-07-27T10:14:40.818Z,90.21
2022-07-27T10:19:51.156Z,85.55
2022-07-27T10:25:02.522Z,84.69
2022-07-27T10:30:09.562Z,82.40
2022-07-27T10:35:38.668Z,74.47
2022-07-27T10:40:44.663Z,78.65
2022-07-27T10:46:01.726Z,77.54
2022-07-27T10:51:12.949Z,76.34
2022-07-27T10:56:48.203Z,68.56
2022-07-27T11:01:59.673Z,67.29
2022-07-27T11:12:33.387Z,70.37
2022-07-27T11:28:46.653Z,72.67
2022-07-27T11:34:00.315Z,70.15
2022-07-27T11:39:14.546Z,70.98
2022-07-27T11:44:20.063Z,67.88
2022-07-27T11:49:28.955Z,66.06
2022-07-27T11:54:38.479Z,65.06
2022-07-27T11:59:45.125Z,65.97
2022-07-27T12:04:51.431Z,66.33
2022-07-27T12:10:02.297Z,68.44
2022-07-27T12:20:43.000Z,65.67
2022-07-27T12:25:50.651Z,67.93
2022-07-27T12:30:55.898Z,68.86
2022-07-27T12:36:02.735Z,67.77
2022-07-27T12:41:11.077Z,66.78
2022-07-27T12:46:17.290Z,66.73
2022-07-27T12:56:32.506Z,63.89
2022-07-27T13:01:37.506Z,61.73
2022-07-27T13:06:42.682Z,61.27
2022-07-27T13:11:50.611Z,61.47
2022-07-27T13:16:55.764Z,60.27
2022-07-27T13:22:01.448Z,60.26
2022-07-27T13:27:09.237Z,60.96
2022-07-27T13:32:14.496Z,62.47
2022-07-27T13:37:23.577Z,61.86
2022-07-27T13:42:31.414Z,59.79
2022-07-27T13:47:36.353Z,59.90
2022-07-27T13:52:41.309Z,58.57
2022-07-27T13:57:50.017Z,57.94
2022-07-27T14:02:55.020Z,58.82
2022-07-27T14:08:00.084Z,58.55
2022-07-27T14:13:11.672Z,59.22
2022-07-27T14:18:16.542Z,57.40
2022-07-27T14:23:21.780Z,59.83
2022-07-27T14:28:30.652Z,57.68
2022-07-27T14:33:36.493Z,57.08
2022-07-27T14:38:44.622Z,58.85
2022-07-27T14:43:52.224Z,57.02
2022-07-27T14:49:06.177Z,58.31
2022-07-27T14:54:11.805Z,57.23
2022-07-27T14:59:19.642Z,56.80
2022-07-27T15:04:24.642Z,55.80
2022-07-27T15:09:30.684Z,56.47
2022-07-27T15:14:39.890Z,55.06
2022-07-27T15:19:44.894Z,54.95
2022-07-27T15:24:49.896Z,53.85
2022-07-27T15:29:57.834Z,53.26
2022-07-27T15:35:02.775Z,52.33
2022-07-27T15:40:21.855Z,52.16
2022-07-27T15:45:29.581Z,51.54
2022-07-27T15:50:34.669Z,52.91
2022-07-27T15:55:40.652Z,53.23
2022-07-27T16:00:49.657Z,52.29
2022-07-27T16:05:55.009Z,48.51
2022-07-27T16:11:00.795Z,48.44
2022-07-27T16:16:21.217Z,46.67
2022-07-27T16:21:27.740Z,47.44
2022-07-27T16:26:32.927Z,46.47
2022-07-27T16:31:40.407Z,44.32
2022-07-27T16:36:45.586Z,44.88
2022-07-27T16:41:51.848Z,43.34
2022-07-27T16:46:59.490Z,45.04
2022-07-27T16:52:04.571Z,44.98
2022-07-27T16:57:10.984Z,43.95
2022-07-27T17:02:19.403Z,43.25
2022-07-27T17:07:24.620Z,42.77
2022-07-27T17:12:30.852Z,43.36
2022-07-27T17:17:41.419Z,42.29
2022-07-27T17:22:46.423Z,41.21
2022-07-27T17:27:52.774Z,41.77
2022-07-27T17:33:00.344Z,39.47
2022-07-27T17:38:07.302Z,40.49
2022-07-27T17:43:13.430Z,40.03
2022-07-27T17:48:23.666Z,40.16
2022-07-27T17:53:29.396Z,42.20
2022-07-27T17:58:34.273Z,43.19
2022-07-27T18:03:42.513Z,43.75
2022-07-27T18:08:47.843Z,44.27
2022-07-27T18:13:52.790Z,44.79
2022-07-27T18:19:01.356Z,44.72
2022-07-27T18:24:10.416Z,44.60
2022-07-27T18:29:16.403Z,45.89
2022-07-27T18:34:24.441Z,46.49
2022-07-27T18:39:33.952Z,46.11
2022-07-27T18:44:39.444Z,47.02
2022-07-27T18:49:46.943Z,48.11
2022-07-27T18:54:52.728Z,48.47
2022-07-27T18:59:58.103Z,49.56
2022-07-27T19:05:05.928Z,49.96
2022-07-27T19:10:12.965Z,50.94
2022-07-27T19:15:18.425Z,51.69
2022-07-27T19:20:26.003Z,52.24
2022-07-27T19:25:33.941Z,53.31
2022-07-27T19:30:39.270Z,53.38
2022-07-27T19:35:46.979Z,54.03
2022-07-27T19:40:52.223Z,54.99
2022-07-27T19:45:57.305Z,55.83
2022-07-27T19:51:07.045Z,56.65
2022-07-27T19:56:12.370Z,56.71
2022-07-27T20:01:17.810Z,56.85
2022-07-27T20:06:25.632Z,56.49
2022-07-27T20:11:31.991Z,56.91
2022-07-27T20:16:38.944Z,57.31
2022-07-27T20:21:46.589Z,59.20
2022-07-27T20:26:51.583Z,60.04
2022-07-27T20:31:56.699Z,60.49
2022-07-27T20:37:04.198Z,61.13
2022-07-27T20:42:09.293Z,62.97
2022-07-27T20:47:14.850Z,64.01
2022-07-27T20:52:22.557Z,64.39
2022-07-27T20:57:28.625Z,64.05
2022-07-27T21:02:33.821Z,64.34
2022-07-27T21:07:41.351Z,65.11
2022-07-27T21:12:47.204Z,67.09
2022-07-27T21:17:52.657Z,67.89
2022-07-27T21:23:15.130Z,67.06
2022-07-27T21:28:24.788Z,67.29
2022-07-27T21:33:30.090Z,67.95
2022-07-27T21:38:37.657Z,67.83
2022-07-27T21:43:42.771Z,68.43
2022-07-27T21:48:48.817Z,69.51
2022-07-27T21:53:56.980Z,71.21
2022-07-27T21:59:02.025Z,73.12
2022-07-27T22:04:07.253Z,74.49
2022-07-27T22:09:14.885Z,75.76
2022-07-27T22:14:19.943Z,75.66
2022-07-27T22:19:24.970Z,76.96
2022-07-27T22:24:32.589Z,79.64
2022-07-27T22:29:37.561Z,84.24
2022-07-27T22:34:42.505Z,83.43
2022-07-27T22:39:50.466Z,85.93
2022-07-27T22:44:55.749Z,89.74
2022-07-27T22:50:01.032Z,92.87
2022-07-27T22:55:09.746Z,97.47
2022-07-27T23:00:16.120Z,100.00
2022-07-27T23:05:21.556Z,100.00
2022-07-27T23:10:41.663Z,100.00
2022-07-27T23:15:47.993Z,100.00
2022-07-27T23:20:53.056Z,100.00
2022-07-27T23:26:00.448Z,100.00
2022-07-27T23:31:06.116Z,100.00
2022-07-27T23:36:12.287Z,100.00
2022-07-27T23:41:19.907Z,100.00
2022-07-27T23:46:25.006Z,100.00
2022-07-27T23:51:30.120Z,100.00
2022-07-27T23:56:37.681Z,100.00
